sensor_id;sensor_type;location;lat;lon;timestamp;P1;durP1;ratioP1;P2;durP2;ratioP2
62951;SDS011;52163;52.212;-1.002;2023-02-28T00:00:47;6.30;;;2.30;;
62951;SDS011;52163;52.212;-1.002;2023-02-28T00:03:12;4.60;;;2.80;;
62951;SDS011;52163;52.212;-1.002;2023-02-28T00:05:38;5.00;;;2.80;;
62951;SDS011;52163;52.212;-1.002;2023-02-28T00:08:04;4.50;;;3.10;;
62951;SDS011;52163;52.212;-1.002;2023-02-28T00:10:29;7.20;;;2.90;;
62951;SDS011;52163;52.212;-1.002;2023-02-28T00:12:59;4.60;;;2.60;;
62951;SDS011;52163;52.212;-1.002;2023-02-28T00:15:26;4.70;;;2.40;;
62951;SDS011;52163;52.212;-1.002;2023-02-28T00:17:52;4.20;;;2.50;;
62951;SDS011;52163;52.212;-1.002;2023-02-28T00:20:17;4.60;;;2.60;;
62951;SDS011;52163;52.212;-1.002;2023-02-28T00:22:44;6.30;;;2.60;;
62951;SDS011;52163;52.212;-1.002;2023-02-28T00:25:11;7.00;;;2.60;;
62951;SDS011;52163;52.212;-1.002;2023-02-28T00:27:39;5.20;;;2.20;;
62951;SDS011;52163;52.212;-1.002;2023-02-28T00:30:06;5.00;;;2.60;;
62951;SDS011;52163;52.212;-1.002;2023-02-28T00:32:33;5.60;;;2.60;;
62951;SDS011;52163;52.212;-1.002;2023-02-28T00:34:59;7.10;;;3.10;;
62951;SDS011;52163;52.212;-1.002;2023-02-28T00:37:25;6.50;;;2.60;;
62951;SDS011;52163;52.212;-1.002;2023-02-28T00:39:51;4.60;;;2.40;;
62951;SDS011;52163;52.212;-1.002;2023-02-28T00:42:16;3.40;;;2.00;;
62951;SDS011;52163;52.212;-1.002;2023-02-28T00:44:41;3.20;;;2.10;;
62951;SDS011;52163;52.212;-1.002;2023-02-28T00:47:07;3.90;;;1.90;;
62951;SDS011;52163;52.212;-1.002;2023-02-28T00:49:32;7.10;;;2.10;;
62951;SDS011;52163;52.212;-1.002;2023-02-28T00:51:58;6.40;;;2.30;;
62951;SDS011;52163;52.212;-1.002;2023-02-28T00:54:24;6.40;;;2.50;;
62951;SDS011;52163;52.212;-1.002;2023-02-28T00:56:49;9.50;;;3.00;;
62951;SDS011;52163;52.212;-1.002;2023-02-28T00:59:16;4.20;;;2.50;;
62951;SDS011;52163;52.212;-1.002;2023-02-28T01:01:43;3.60;;;2.40;;
62951;SDS011;52163;52.212;-1.002;2023-02-28T01:04:10;5.10;;;2.00;;
62951;SDS011;52163;52.212;-1.002;2023-02-28T01:06:36;5.00;;;2.60;;
62951;SDS011;52163;52.212;-1.002;2023-02-28T01:09:02;5.50;;;2.20;;
62951;SDS011;52163;52.212;-1.002;2023-02-28T01:11:28;4.50;;;2.50;;
62951;SDS011;52163;52.212;-1.002;2023-02-28T01:13:54;3.80;;;2.30;;
62951;SDS011;52163;52.212;-1.002;2023-02-28T01:16:20;6.50;;;3.80;;
62951;SDS011;52163;52.212;-1.002;2023-02-28T01:18:45;5.90;;;2.70;;
62951;SDS011;52163;52.212;-1.002;2023-02-28T01:21:12;6.00;;;2.80;;
62951;SDS011;52163;52.212;-1.002;2023-02-28T01:23:39;4.00;;;2.60;;
62951;SDS011;52163;52.212;-1.002;2023-02-28T01:26:05;4.60;;;2.50;;
62951;SDS011;52163;52.212;-1.002;2023-02-28T01:28:33;5.20;;;2.60;;
62951;SDS011;52163;52.212;-1.002;2023-02-28T01:30:59;5.90;;;3.00;;
62951;SDS011;52163;52.212;-1.002;2023-02-28T01:33:25;3.40;;;2.20;;
62951;SDS011;52163;52.212;-1.002;2023-02-28T01:35:57;5.50;;;2.70;;
62951;SDS011;52163;52.212;-1.002;2023-02-28T01:38:26;4.70;;;3.60;;
62951;SDS011;52163;52.212;-1.002;2023-02-28T01:40:52;6.40;;;4.40;;
62951;SDS011;52163;52.212;-1.002;2023-02-28T01:43:31;4.60;;;3.60;;
62951;SDS011;52163;52.212;-1.002;2023-02-28T01:46:17;6.70;;;4.20;;
62951;SDS011;52163;52.212;-1.002;2023-02-28T01:48:49;4.80;;;3.50;;
62951;SDS011;52163;52.212;-1.002;2023-02-28T01:51:17;5.00;;;3.10;;
62951;SDS011;52163;52.212;-1.002;2023-02-28T01:53:51;5.50;;;3.50;;
62951;SDS011;52163;52.212;-1.002;2023-02-28T01:56:22;5.60;;;3.10;;
62951;SDS011;52163;52.212;-1.002;2023-02-28T01:58:51;7.50;;;3.30;;
62951;SDS011;52163;52.212;-1.002;2023-02-28T02:01:19;6.00;;;4.00;;
62951;SDS011;52163;52.212;-1.002;2023-02-28T02:03:49;5.30;;;3.50;;
62951;SDS011;52163;52.212;-1.002;2023-02-28T02:06:25;7.20;;;4.10;;
62951;SDS011;52163;52.212;-1.002;2023-02-28T02:08:54;7.30;;;2.80;;
62951;SDS011;52163;52.212;-1.002;2023-02-28T02:11:20;4.00;;;3.00;;
62951;SDS011;52163;52.212;-1.002;2023-02-28T02:14:25;4.90;;;2.80;;
62951;SDS011;52163;52.212;-1.002;2023-02-28T02:16:47;5.70;;;2.90;;
62951;SDS011;52163;52.212;-1.002;2023-02-28T02:25:50;5.30;;;3.60;;
62951;SDS011;52163;52.212;-1.002;2023-02-28T02:31:06;4.00;;;3.00;;
62951;SDS011;52163;52.212;-1.002;2023-02-28T02:39:50;6.00;;;2.90;;
62951;SDS011;52163;52.212;-1.002;2023-02-28T02:42:24;4.70;;;3.30;;
62951;SDS011;52163;52.212;-1.002;2023-02-28T02:45:29;5.50;;;3.30;;
62951;SDS011;52163;52.212;-1.002;2023-02-28T02:47:53;4.00;;;2.90;;
62951;SDS011;52163;52.212;-1.002;2023-02-28T02:50:25;4.00;;;2.20;;
62951;SDS011;52163;52.212;-1.002;2023-02-28T02:52:57;4.40;;;2.80;;
62951;SDS011;52163;52.212;-1.002;2023-02-28T02:55:25;4.20;;;2.50;;
62951;SDS011;52163;52.212;-1.002;2023-02-28T02:57:56;3.30;;;2.40;;
62951;SDS011;52163;52.212;-1.002;2023-02-28T03:00:54;3.30;;;2.40;;
62951;SDS011;52163;52.212;-1.002;2023-02-28T03:03:19;4.50;;;3.20;;
62951;SDS011;52163;52.212;-1.002;2023-02-28T03:05:54;5.40;;;3.50;;
62951;SDS011;52163;52.212;-1.002;2023-02-28T03:08:21;4.10;;;3.40;;
62951;SDS011;52163;52.212;-1.002;2023-02-28T03:10:50;4.10;;;2.90;;
62951;SDS011;52163;52.212;-1.002;2023-02-28T03:26:58;6.30;;;3.20;;
62951;SDS011;52163;52.212;-1.002;2023-02-28T03:29:35;5.30;;;3.20;;
62951;SDS011;52163;52.212;-1.002;2023-02-28T03:32:17;5.30;;;3.30;;
62951;SDS011;52163;52.212;-1.002;2023-02-28T03:34:51;3.70;;;2.70;;
62951;SDS011;52163;52.212;-1.002;2023-02-28T03:37:23;4.00;;;2.80;;
62951;SDS011;52163;52.212;-1.002;2023-02-28T03:39:56;3.50;;;2.60;;
62951;SDS011;52163;52.212;-1.002;2023-02-28T03:42:29;3.20;;;2.10;;
62951;SDS011;52163;52.212;-1.002;2023-02-28T03:45:05;4.80;;;2.80;;
62951;SDS011;52163;52.212;-1.002;2023-02-28T03:50:16;5.00;;;2.70;;
62951;SDS011;52163;52.212;-1.002;2023-02-28T03:52:53;5.40;;;2.60;;
62951;SDS011;52163;52.212;-1.002;2023-02-28T03:55:27;2.60;;;2.00;;
62951;SDS011;52163;52.212;-1.002;2023-02-28T04:00:34;2.10;;;1.20;;
62951;SDS011;52163;52.212;-1.002;2023-02-28T04:03:03;4.60;;;2.10;;
62951;SDS011;52163;52.212;-1.002;2023-02-28T04:05:29;5.10;;;2.10;;
62951;SDS011;52163;52.212;-1.002;2023-02-28T04:08:06;3.60;;;2.00;;
62951;SDS011;52163;52.212;-1.002;2023-02-28T04:10:32;3.20;;;1.90;;
62951;SDS011;52163;52.212;-1.002;2023-02-28T04:12:58;2.70;;;1.90;;
62951;SDS011;52163;52.212;-1.002;2023-02-28T04:15:23;2.80;;;1.50;;
62951;SDS011;52163;52.212;-1.002;2023-02-28T04:17:50;4.50;;;1.70;;
62951;SDS011;52163;52.212;-1.002;2023-02-28T04:20:16;4.00;;;2.00;;
62951;SDS011;52163;52.212;-1.002;2023-02-28T04:22:41;5.60;;;2.40;;
62951;SDS011;52163;52.212;-1.002;2023-02-28T04:25:07;3.50;;;2.10;;
62951;SDS011;52163;52.212;-1.002;2023-02-28T04:27:33;4.70;;;2.40;;
62951;SDS011;52163;52.212;-1.002;2023-02-28T04:29:59;2.90;;;1.50;;
62951;SDS011;52163;52.212;-1.002;2023-02-28T04:32:24;2.80;;;1.60;;
62951;SDS011;52163;52.212;-1.002;2023-02-28T04:34:50;4.20;;;2.00;;
62951;SDS011;52163;52.212;-1.002;2023-02-28T04:37:15;3.70;;;1.80;;
62951;SDS011;52163;52.212;-1.002;2023-02-28T04:39:41;5.10;;;1.80;;
62951;SDS011;52163;52.212;-1.002;2023-02-28T04:42:08;3.80;;;1.80;;
62951;SDS011;52163;52.212;-1.002;2023-02-28T04:44:35;3.70;;;1.90;;
62951;SDS011;52163;52.212;-1.002;2023-02-28T04:47:00;4.50;;;2.10;;
62951;SDS011;52163;52.212;-1.002;2023-02-28T04:49:25;3.00;;;1.70;;
62951;SDS011;52163;52.212;-1.002;2023-02-28T04:51:51;3.70;;;1.60;;
62951;SDS011;52163;52.212;-1.002;2023-02-28T04:54:17;3.00;;;1.80;;
62951;SDS011;52163;52.212;-1.002;2023-02-28T04:56:43;4.60;;;2.10;;
62951;SDS011;52163;52.212;-1.002;2023-02-28T04:59:09;3.70;;;1.80;;
62951;SDS011;52163;52.212;-1.002;2023-02-28T05:01:34;3.10;;;2.00;;
62951;SDS011;52163;52.212;-1.002;2023-02-28T05:04:02;3.90;;;2.10;;
62951;SDS011;52163;52.212;-1.002;2023-02-28T05:06:30;3.70;;;1.80;;
62951;SDS011;52163;52.212;-1.002;2023-02-28T05:08:57;3.30;;;2.10;;
62951;SDS011;52163;52.212;-1.002;2023-02-28T05:11:27;5.70;;;2.20;;
62951;SDS011;52163;52.212;-1.002;2023-02-28T05:13:58;2.90;;;1.80;;
62951;SDS011;52163;52.212;-1.002;2023-02-28T05:16:24;3.00;;;1.80;;
62951;SDS011;52163;52.212;-1.002;2023-02-28T05:18:49;4.30;;;1.60;;
62951;SDS011;52163;52.212;-1.002;2023-02-28T05:23:49;2.90;;;1.50;;
62951;SDS011;52163;52.212;-1.002;2023-02-28T05:26:15;3.60;;;2.60;;
62951;SDS011;52163;52.212;-1.002;2023-02-28T05:28:40;5.30;;;2.70;;
62951;SDS011;52163;52.212;-1.002;2023-02-28T05:31:06;5.40;;;2.70;;
62951;SDS011;52163;52.212;-1.002;2023-02-28T05:33:31;3.00;;;1.60;;
62951;SDS011;52163;52.212;-1.002;2023-02-28T05:35:56;3.30;;;1.50;;
62951;SDS011;52163;52.212;-1.002;2023-02-28T05:38:22;3.10;;;1.50;;
62951;SDS011;52163;52.212;-1.002;2023-02-28T05:40:47;2.80;;;1.40;;
62951;SDS011;52163;52.212;-1.002;2023-02-28T05:43:12;3.20;;;1.40;;
62951;SDS011;52163;52.212;-1.002;2023-02-28T05:45:38;2.40;;;1.20;;
62951;SDS011;52163;52.212;-1.002;2023-02-28T05:48:04;3.30;;;1.30;;
62951;SDS011;52163;52.212;-1.002;2023-02-28T05:50:29;3.10;;;1.80;;
62951;SDS011;52163;52.212;-1.002;2023-02-28T05:52:55;3.40;;;1.60;;
62951;SDS011;52163;52.212;-1.002;2023-02-28T05:55:20;2.70;;;1.60;;
62951;SDS011;52163;52.212;-1.002;2023-02-28T05:57:46;3.60;;;1.50;;
62951;SDS011;52163;52.212;-1.002;2023-02-28T06:00:11;2.50;;;1.40;;
62951;SDS011;52163;52.212;-1.002;2023-02-28T06:02:39;3.50;;;1.70;;
62951;SDS011;52163;52.212;-1.002;2023-02-28T06:05:07;4.60;;;1.80;;
62951;SDS011;52163;52.212;-1.002;2023-02-28T06:07:43;4.70;;;1.90;;
62951;SDS011;52163;52.212;-1.002;2023-02-28T06:10:12;3.70;;;1.50;;
62951;SDS011;52163;52.212;-1.002;2023-02-28T06:12:38;3.20;;;1.70;;
62951;SDS011;52163;52.212;-1.002;2023-02-28T06:15:04;3.20;;;1.50;;
62951;SDS011;52163;52.212;-1.002;2023-02-28T06:17:30;2.50;;;1.40;;
62951;SDS011;52163;52.212;-1.002;2023-02-28T06:19:55;2.40;;;1.40;;
62951;SDS011;52163;52.212;-1.002;2023-02-28T06:22:21;3.60;;;1.70;;
62951;SDS011;52163;52.212;-1.002;2023-02-28T06:24:48;3.10;;;1.60;;
62951;SDS011;52163;52.212;-1.002;2023-02-28T06:27:14;3.60;;;2.00;;
62951;SDS011;52163;52.212;-1.002;2023-02-28T06:29:39;4.90;;;1.70;;
62951;SDS011;52163;52.212;-1.002;2023-02-28T06:32:05;3.90;;;2.10;;
62951;SDS011;52163;52.212;-1.002;2023-02-28T06:34:33;4.10;;;1.50;;
62951;SDS011;52163;52.212;-1.002;2023-02-28T06:36:59;2.40;;;1.30;;
62951;SDS011;52163;52.212;-1.002;2023-02-28T06:39:27;3.40;;;1.60;;
62951;SDS011;52163;52.212;-1.002;2023-02-28T06:41:53;2.70;;;1.50;;
62951;SDS011;52163;52.212;-1.002;2023-02-28T06:44:19;2.30;;;1.30;;
62951;SDS011;52163;52.212;-1.002;2023-02-28T06:46:45;3.80;;;1.30;;
62951;SDS011;52163;52.212;-1.002;2023-02-28T06:49:11;4.00;;;1.60;;
62951;SDS011;52163;52.212;-1.002;2023-02-28T06:51:37;2.50;;;1.30;;
62951;SDS011;52163;52.212;-1.002;2023-02-28T06:54:06;3.30;;;1.70;;
62951;SDS011;52163;52.212;-1.002;2023-02-28T06:56:35;2.80;;;1.40;;
62951;SDS011;52163;52.212;-1.002;2023-02-28T06:59:01;2.70;;;1.40;;
62951;SDS011;52163;52.212;-1.002;2023-02-28T07:01:26;4.60;;;1.30;;
62951;SDS011;52163;52.212;-1.002;2023-02-28T07:03:53;3.50;;;1.40;;
62951;SDS011;52163;52.212;-1.002;2023-02-28T07:06:20;3.00;;;1.40;;
62951;SDS011;52163;52.212;-1.002;2023-02-28T07:08:50;4.10;;;2.10;;
62951;SDS011;52163;52.212;-1.002;2023-02-28T07:11:20;5.10;;;2.10;;
62951;SDS011;52163;52.212;-1.002;2023-02-28T07:13:48;3.20;;;1.70;;
62951;SDS011;52163;52.212;-1.002;2023-02-28T07:16:14;2.30;;;1.10;;
62951;SDS011;52163;52.212;-1.002;2023-02-28T07:18:39;3.80;;;1.80;;
62951;SDS011;52163;52.212;-1.002;2023-02-28T07:21:06;3.60;;;1.30;;
62951;SDS011;52163;52.212;-1.002;2023-02-28T07:23:33;3.10;;;1.70;;
62951;SDS011;52163;52.212;-1.002;2023-02-28T07:25:59;5.50;;;1.70;;
62951;SDS011;52163;52.212;-1.002;2023-02-28T07:28:25;2.80;;;1.60;;
62951;SDS011;52163;52.212;-1.002;2023-02-28T07:30:50;3.50;;;1.60;;
62951;SDS011;52163;52.212;-1.002;2023-02-28T07:33:16;3.40;;;1.40;;
62951;SDS011;52163;52.212;-1.002;2023-02-28T07:35:42;3.40;;;1.40;;
62951;SDS011;52163;52.212;-1.002;2023-02-28T07:38:07;7.60;;;2.40;;
62951;SDS011;52163;52.212;-1.002;2023-02-28T07:40:33;5.70;;;2.00;;
62951;SDS011;52163;52.212;-1.002;2023-02-28T07:43:01;3.10;;;1.60;;
62951;SDS011;52163;52.212;-1.002;2023-02-28T07:45:27;3.00;;;1.70;;
62951;SDS011;52163;52.212;-1.002;2023-02-28T07:47:57;5.10;;;2.10;;
62951;SDS011;52163;52.212;-1.002;2023-02-28T07:50:23;3.60;;;1.90;;
62951;SDS011;52163;52.212;-1.002;2023-02-28T07:52:48;3.70;;;1.80;;
62951;SDS011;52163;52.212;-1.002;2023-02-28T07:55:14;4.10;;;1.90;;
62951;SDS011;52163;52.212;-1.002;2023-02-28T07:57:40;6.30;;;2.50;;
62951;SDS011;52163;52.212;-1.002;2023-02-28T08:00:07;6.70;;;2.10;;
62951;SDS011;52163;52.212;-1.002;2023-02-28T08:02:37;3.80;;;1.80;;
62951;SDS011;52163;52.212;-1.002;2023-02-28T08:05:04;3.50;;;1.70;;
62951;SDS011;52163;52.212;-1.002;2023-02-28T08:07:30;4.90;;;1.90;;
62951;SDS011;52163;52.212;-1.002;2023-02-28T08:09:56;2.20;;;1.40;;
62951;SDS011;52163;52.212;-1.002;2023-02-28T08:12:21;3.70;;;1.90;;
62951;SDS011;52163;52.212;-1.002;2023-02-28T08:14:46;8.80;;;2.30;;
62951;SDS011;52163;52.212;-1.002;2023-02-28T08:17:12;4.80;;;2.20;;
62951;SDS011;52163;52.212;-1.002;2023-02-28T08:19:37;4.60;;;2.10;;
62951;SDS011;52163;52.212;-1.002;2023-02-28T08:22:03;3.20;;;1.90;;
62951;SDS011;52163;52.212;-1.002;2023-02-28T08:24:28;3.50;;;1.90;;
62951;SDS011;52163;52.212;-1.002;2023-02-28T08:26:54;3.80;;;1.60;;
62951;SDS011;52163;52.212;-1.002;2023-02-28T08:29:20;5.50;;;2.40;;
62951;SDS011;52163;52.212;-1.002;2023-02-28T08:31:45;4.10;;;2.10;;
62951;SDS011;52163;52.212;-1.002;2023-02-28T08:34:13;7.30;;;2.90;;
62951;SDS011;52163;52.212;-1.002;2023-02-28T08:36:40;5.20;;;3.20;;
62951;SDS011;52163;52.212;-1.002;2023-02-28T08:39:07;6.50;;;3.70;;
62951;SDS011;52163;52.212;-1.002;2023-02-28T08:41:32;6.10;;;3.40;;
62951;SDS011;52163;52.212;-1.002;2023-02-28T08:43:58;5.60;;;3.80;;
62951;SDS011;52163;52.212;-1.002;2023-02-28T08:46:24;8.80;;;4.70;;
62951;SDS011;52163;52.212;-1.002;2023-02-28T08:48:53;7.90;;;3.90;;
62951;SDS011;52163;52.212;-1.002;2023-02-28T08:51:21;6.30;;;3.90;;
62951;SDS011;52163;52.212;-1.002;2023-02-28T08:53:55;6.80;;;4.10;;
62951;SDS011;52163;52.212;-1.002;2023-02-28T08:56:23;7.30;;;4.00;;
62951;SDS011;52163;52.212;-1.002;2023-02-28T08:58:49;6.50;;;3.10;;
62951;SDS011;52163;52.212;-1.002;2023-02-28T09:01:16;7.90;;;4.10;;
62951;SDS011;52163;52.212;-1.002;2023-02-28T09:03:44;6.50;;;3.40;;
62951;SDS011;52163;52.212;-1.002;2023-02-28T09:06:11;7.40;;;3.80;;
62951;SDS011;52163;52.212;-1.002;2023-02-28T09:08:37;6.90;;;3.70;;
62951;SDS011;52163;52.212;-1.002;2023-02-28T09:11:03;7.00;;;3.50;;
62951;SDS011;52163;52.212;-1.002;2023-02-28T09:13:30;7.90;;;3.80;;
62951;SDS011;52163;52.212;-1.002;2023-02-28T09:15:58;6.60;;;4.00;;
62951;SDS011;52163;52.212;-1.002;2023-02-28T09:18:25;7.70;;;4.10;;
62951;SDS011;52163;52.212;-1.002;2023-02-28T09:20:51;10.20;;;4.70;;
62951;SDS011;52163;52.212;-1.002;2023-02-28T09:23:17;8.60;;;4.60;;
62951;SDS011;52163;52.212;-1.002;2023-02-28T09:25:46;7.00;;;4.40;;
62951;SDS011;52163;52.212;-1.002;2023-02-28T09:28:13;7.20;;;4.00;;
62951;SDS011;52163;52.212;-1.002;2023-02-28T09:30:41;7.50;;;4.20;;
62951;SDS011;52163;52.212;-1.002;2023-02-28T09:33:07;8.40;;;4.80;;
62951;SDS011;52163;52.212;-1.002;2023-02-28T09:35:32;8.30;;;4.40;;
62951;SDS011;52163;52.212;-1.002;2023-02-28T09:37:58;9.30;;;4.70;;
62951;SDS011;52163;52.212;-1.002;2023-02-28T09:40:24;8.50;;;4.50;;
62951;SDS011;52163;52.212;-1.002;2023-02-28T09:42:51;8.70;;;4.50;;
62951;SDS011;52163;52.212;-1.002;2023-02-28T09:45:24;8.90;;;4.90;;
62951;SDS011;52163;52.212;-1.002;2023-02-28T09:47:58;7.40;;;3.60;;
62951;SDS011;52163;52.212;-1.002;2023-02-28T09:50:34;8.20;;;4.20;;
62951;SDS011;52163;52.212;-1.002;2023-02-28T09:53:06;7.50;;;4.50;;
62951;SDS011;52163;52.212;-1.002;2023-02-28T09:55:45;8.20;;;4.50;;
62951;SDS011;52163;52.212;-1.002;2023-02-28T10:01:09;9.80;;;4.50;;
62951;SDS011;52163;52.212;-1.002;2023-02-28T10:06:39;9.20;;;5.00;;
62951;SDS011;52163;52.212;-1.002;2023-02-28T10:09:14;10.50;;;5.30;;
62951;SDS011;52163;52.212;-1.002;2023-02-28T10:11:45;8.60;;;4.30;;
62951;SDS011;52163;52.212;-1.002;2023-02-28T10:14:18;7.40;;;4.70;;
62951;SDS011;52163;52.212;-1.002;2023-02-28T10:24:53;8.50;;;4.40;;
62951;SDS011;52163;52.212;-1.002;2023-02-28T10:27:25;7.70;;;4.60;;
62951;SDS011;52163;52.212;-1.002;2023-02-28T10:29:56;8.90;;;3.90;;
62951;SDS011;52163;52.212;-1.002;2023-02-28T10:35:14;9.70;;;4.40;;
62951;SDS011;52163;52.212;-1.002;2023-02-28T10:37:44;7.70;;;3.90;;
62951;SDS011;52163;52.212;-1.002;2023-02-28T10:42:42;7.80;;;4.50;;
62951;SDS011;52163;52.212;-1.002;2023-02-28T10:45:19;8.40;;;4.60;;
62951;SDS011;52163;52.212;-1.002;2023-02-28T10:50:31;7.20;;;4.10;;
62951;SDS011;52163;52.212;-1.002;2023-02-28T10:53:58;8.20;;;4.40;;
62951;SDS011;52163;52.212;-1.002;2023-02-28T11:01:17;8.10;;;3.80;;
62951;SDS011;52163;52.212;-1.002;2023-02-28T11:03:51;8.50;;;4.60;;
62951;SDS011;52163;52.212;-1.002;2023-02-28T11:06:19;6.90;;;3.60;;
62951;SDS011;52163;52.212;-1.002;2023-02-28T11:08:48;7.10;;;4.30;;
62951;SDS011;52163;52.212;-1.002;2023-02-28T11:11:16;6.70;;;3.40;;
62951;SDS011;52163;52.212;-1.002;2023-02-28T11:13:43;8.30;;;4.90;;
62951;SDS011;52163;52.212;-1.002;2023-02-28T11:16:11;7.80;;;4.40;;
62951;SDS011;52163;52.212;-1.002;2023-02-28T11:26:48;8.80;;;4.10;;
62951;SDS011;52163;52.212;-1.002;2023-02-28T11:29:22;7.20;;;3.80;;
62951;SDS011;52163;52.212;-1.002;2023-02-28T11:32:00;6.90;;;3.00;;
62951;SDS011;52163;52.212;-1.002;2023-02-28T11:34:31;6.80;;;3.80;;
62951;SDS011;52163;52.212;-1.002;2023-02-28T11:36:58;9.80;;;5.10;;
62951;SDS011;52163;52.212;-1.002;2023-02-28T11:39:26;5.60;;;3.10;;
62951;SDS011;52163;52.212;-1.002;2023-02-28T11:47:56;5.20;;;2.40;;
62951;SDS011;52163;52.212;-1.002;2023-02-28T11:56:41;4.60;;;2.50;;
62951;SDS011;52163;52.212;-1.002;2023-02-28T12:02:25;4.40;;;2.10;;
62951;SDS011;52163;52.212;-1.002;2023-02-28T12:16:32;4.90;;;2.80;;
62951;SDS011;52163;52.212;-1.002;2023-02-28T12:19:15;4.30;;;2.30;;
62951;SDS011;52163;52.212;-1.002;2023-02-28T12:27:13;5.30;;;2.90;;
62951;SDS011;52163;52.212;-1.002;2023-02-28T12:32:25;4.10;;;2.30;;
62951;SDS011;52163;52.212;-1.002;2023-02-28T12:35:16;4.30;;;2.30;;
62951;SDS011;52163;52.212;-1.002;2023-02-28T12:40:20;4.10;;;2.50;;
62951;SDS011;52163;52.212;-1.002;2023-02-28T12:42:58;3.30;;;2.00;;
62951;SDS011;52163;52.212;-1.002;2023-02-28T12:45:39;4.10;;;2.00;;
62951;SDS011;52163;52.212;-1.002;2023-02-28T12:48:10;3.20;;;1.60;;
62951;SDS011;52163;52.212;-1.002;2023-02-28T12:50:40;2.80;;;1.50;;
62951;SDS011;52163;52.212;-1.002;2023-02-28T12:53:07;2.30;;;1.10;;
62951;SDS011;52163;52.212;-1.002;2023-02-28T12:55:42;2.80;;;1.40;;
62951;SDS011;52163;52.212;-1.002;2023-02-28T13:01:21;2.90;;;1.20;;
62951;SDS011;52163;52.212;-1.002;2023-02-28T13:04:14;2.50;;;1.30;;
62951;SDS011;52163;52.212;-1.002;2023-02-28T13:09:51;2.40;;;1.30;;
62951;SDS011;52163;52.212;-1.002;2023-02-28T13:12:18;2.30;;;1.30;;
62951;SDS011;52163;52.212;-1.002;2023-02-28T13:14:45;1.70;;;1.00;;
62951;SDS011;52163;52.212;-1.002;2023-02-28T13:17:12;2.40;;;1.30;;
62951;SDS011;52163;52.212;-1.002;2023-02-28T13:22:17;2.00;;;1.20;;
62951;SDS011;52163;52.212;-1.002;2023-02-28T13:27:48;2.00;;;1.10;;
62951;SDS011;52163;52.212;-1.002;2023-02-28T13:38:57;2.00;;;1.00;;
62951;SDS011;52163;52.212;-1.002;2023-02-28T13:41:46;1.80;;;1.00;;
62951;SDS011;52163;52.212;-1.002;2023-02-28T13:44:17;3.50;;;1.30;;
62951;SDS011;52163;52.212;-1.002;2023-02-28T13:57:27;2.50;;;1.50;;
62951;SDS011;52163;52.212;-1.002;2023-02-28T14:05:35;3.30;;;1.90;;
62951;SDS011;52163;52.212;-1.002;2023-02-28T14:08:06;4.40;;;2.40;;
62951;SDS011;52163;52.212;-1.002;2023-02-28T14:10:50;3.70;;;2.20;;
62951;SDS011;52163;52.212;-1.002;2023-02-28T14:16:09;3.80;;;2.70;;
62951;SDS011;52163;52.212;-1.002;2023-02-28T14:18:40;4.30;;;2.40;;
62951;SDS011;52163;52.212;-1.002;2023-02-28T14:21:26;3.10;;;2.40;;
62951;SDS011;52163;52.212;-1.002;2023-02-28T14:26:35;6.20;;;3.40;;
62951;SDS011;52163;52.212;-1.002;2023-02-28T14:32:33;4.50;;;3.20;;
62951;SDS011;52163;52.212;-1.002;2023-02-28T14:37:44;3.50;;;1.90;;
62951;SDS011;52163;52.212;-1.002;2023-02-28T14:40:14;2.80;;;2.00;;
62951;SDS011;52163;52.212;-1.002;2023-02-28T14:42:46;3.30;;;2.20;;
62951;SDS011;52163;52.212;-1.002;2023-02-28T14:45:21;3.70;;;1.90;;
62951;SDS011;52163;52.212;-1.002;2023-02-28T14:47:48;2.60;;;1.70;;
62951;SDS011;52163;52.212;-1.002;2023-02-28T14:50:20;3.00;;;1.90;;
62951;SDS011;52163;52.212;-1.002;2023-02-28T14:52:47;3.10;;;2.00;;
62951;SDS011;52163;52.212;-1.002;2023-02-28T14:55:18;2.90;;;1.80;;
62951;SDS011;52163;52.212;-1.002;2023-02-28T14:57:51;2.40;;;1.60;;
62951;SDS011;52163;52.212;-1.002;2023-02-28T15:00:26;2.30;;;1.60;;
62951;SDS011;52163;52.212;-1.002;2023-02-28T15:02:56;2.90;;;1.70;;
62951;SDS011;52163;52.212;-1.002;2023-02-28T15:05:25;2.90;;;1.60;;
62951;SDS011;52163;52.212;-1.002;2023-02-28T15:08:02;3.30;;;1.70;;
62951;SDS011;52163;52.212;-1.002;2023-02-28T15:10:29;2.60;;;1.40;;
62951;SDS011;52163;52.212;-1.002;2023-02-28T15:15:21;3.20;;;1.30;;
62951;SDS011;52163;52.212;-1.002;2023-02-28T15:20:57;2.70;;;1.40;;
62951;SDS011;52163;52.212;-1.002;2023-02-28T15:23:31;3.10;;;1.50;;
62951;SDS011;52163;52.212;-1.002;2023-02-28T15:25:59;2.50;;;1.40;;
62951;SDS011;52163;52.212;-1.002;2023-02-28T15:28:25;3.10;;;1.50;;
62951;SDS011;52163;52.212;-1.002;2023-02-28T15:30:56;2.50;;;1.30;;
62951;SDS011;52163;52.212;-1.002;2023-02-28T15:33:29;2.10;;;1.00;;
62951;SDS011;52163;52.212;-1.002;2023-02-28T15:36:03;0.80;;;0.60;;
62951;SDS011;52163;52.212;-1.002;2023-02-28T15:38:33;1.90;;;1.00;;
62951;SDS011;52163;52.212;-1.002;2023-02-28T15:41:00;2.30;;;1.00;;
62951;SDS011;52163;52.212;-1.002;2023-02-28T15:43:30;3.30;;;1.20;;
62951;SDS011;52163;52.212;-1.002;2023-02-28T15:48:33;3.20;;;1.70;;
62951;SDS011;52163;52.212;-1.002;2023-02-28T15:51:09;3.20;;;1.80;;
62951;SDS011;52163;52.212;-1.002;2023-02-28T15:56:43;3.50;;;1.80;;
62951;SDS011;52163;52.212;-1.002;2023-02-28T15:59:15;3.60;;;1.70;;
62951;SDS011;52163;52.212;-1.002;2023-02-28T16:01:46;2.60;;;1.60;;
62951;SDS011;52163;52.212;-1.002;2023-02-28T16:04:16;2.80;;;1.50;;
62951;SDS011;52163;52.212;-1.002;2023-02-28T16:06:44;3.50;;;1.40;;
62951;SDS011;52163;52.212;-1.002;2023-02-28T16:09:13;2.70;;;1.40;;
62951;SDS011;52163;52.212;-1.002;2023-02-28T16:11:41;2.10;;;1.40;;
62951;SDS011;52163;52.212;-1.002;2023-02-28T16:14:11;2.70;;;1.20;;
62951;SDS011;52163;52.212;-1.002;2023-02-28T16:16:44;3.20;;;1.40;;
62951;SDS011;52163;52.212;-1.002;2023-02-28T16:19:12;2.90;;;1.80;;
62951;SDS011;52163;52.212;-1.002;2023-02-28T16:21:37;4.10;;;1.70;;
62951;SDS011;52163;52.212;-1.002;2023-02-28T16:24:03;3.00;;;1.50;;
62951;SDS011;52163;52.212;-1.002;2023-02-28T16:26:28;3.00;;;1.80;;
62951;SDS011;52163;52.212;-1.002;2023-02-28T16:28:54;3.40;;;1.90;;
62951;SDS011;52163;52.212;-1.002;2023-02-28T16:31:20;3.30;;;1.70;;
62951;SDS011;52163;52.212;-1.002;2023-02-28T16:33:46;2.70;;;1.60;;
62951;SDS011;52163;52.212;-1.002;2023-02-28T16:36:13;2.60;;;1.80;;
62951;SDS011;52163;52.212;-1.002;2023-02-28T16:38:40;2.20;;;1.30;;
62951;SDS011;52163;52.212;-1.002;2023-02-28T16:41:06;2.20;;;1.00;;
62951;SDS011;52163;52.212;-1.002;2023-02-28T16:43:31;1.40;;;0.80;;
62951;SDS011;52163;52.212;-1.002;2023-02-28T16:45:57;1.10;;;0.70;;
62951;SDS011;52163;52.212;-1.002;2023-02-28T16:48:23;1.40;;;0.40;;
62951;SDS011;52163;52.212;-1.002;2023-02-28T16:50:50;1.30;;;0.50;;
62951;SDS011;52163;52.212;-1.002;2023-02-28T16:53:15;1.10;;;0.60;;
62951;SDS011;52163;52.212;-1.002;2023-02-28T16:55:40;1.50;;;0.50;;
62951;SDS011;52163;52.212;-1.002;2023-02-28T16:58:06;1.90;;;0.50;;
62951;SDS011;52163;52.212;-1.002;2023-02-28T17:00:32;1.30;;;0.60;;
62951;SDS011;52163;52.212;-1.002;2023-02-28T17:02:58;1.10;;;0.40;;
62951;SDS011;52163;52.212;-1.002;2023-02-28T17:05:24;1.40;;;0.80;;
62951;SDS011;52163;52.212;-1.002;2023-02-28T17:07:52;1.30;;;0.60;;
62951;SDS011;52163;52.212;-1.002;2023-02-28T17:10:18;1.50;;;0.70;;
62951;SDS011;52163;52.212;-1.002;2023-02-28T17:12:46;0.70;;;0.50;;
62951;SDS011;52163;52.212;-1.002;2023-02-28T17:15:12;1.20;;;0.70;;
62951;SDS011;52163;52.212;-1.002;2023-02-28T17:17:39;1.40;;;0.70;;
62951;SDS011;52163;52.212;-1.002;2023-02-28T17:20:05;1.50;;;0.70;;
62951;SDS011;52163;52.212;-1.002;2023-02-28T17:22:36;1.30;;;0.80;;
62951;SDS011;52163;52.212;-1.002;2023-02-28T17:25:01;2.60;;;0.80;;
62951;SDS011;52163;52.212;-1.002;2023-02-28T17:27:27;0.50;;;0.50;;
62951;SDS011;52163;52.212;-1.002;2023-02-28T17:29:52;0.90;;;0.80;;
62951;SDS011;52163;52.212;-1.002;2023-02-28T17:32:17;2.60;;;0.70;;